createdAt,value
2023-01-09T00:01:28.753Z,11.13
2023-01-09T00:03:50.510Z,11.40
2023-01-09T00:06:12.001Z,11.10
2023-01-09T00:08:33.481Z,11.07
2023-01-09T00:10:54.884Z,11.13
2023-01-09T00:13:18.120Z,13.23
2023-01-09T00:15:40.882Z,12.73
2023-01-09T00:18:02.363Z,12.30
2023-01-09T00:20:23.795Z,10.30
2023-01-09T00:22:45.238Z,10.37
2023-01-09T00:25:06.924Z,11.77
2023-01-09T00:27:32.565Z,11.07
2023-01-09T00:29:54.007Z,10.67
2023-01-09T00:32:16.149Z,10.43
2023-01-09T00:34:41.006Z,11.10
2023-01-09T00:37:02.401Z,12.23
2023-01-09T00:39:23.830Z,12.30
2023-01-09T00:41:48.052Z,12.87
2023-01-09T00:44:14.601Z,16.70
2023-01-09T00:46:41.777Z,13.00
2023-01-09T00:49:07.350Z,18.40
2023-01-09T00:51:28.895Z,14.40
2023-01-09T00:53:52.154Z,12.17
2023-01-09T00:56:16.911Z,12.80
2023-01-09T00:58:38.435Z,12.33
2023-01-09T01:00:59.899Z,11.53
2023-01-09T01:03:21.436Z,11.53
2023-01-09T01:06:01.536Z,11.13
2023-01-09T01:08:22.957Z,9.83
2023-01-09T01:10:45.149Z,9.70
2023-01-09T01:13:06.992Z,8.33
2023-01-09T01:15:29.582Z,9.17
2023-01-09T01:17:51.044Z,7.30
2023-01-09T01:20:16.152Z,7.37
2023-01-09T01:22:37.652Z,7.83
2023-01-09T01:24:59.064Z,7.30
2023-01-09T01:27:20.512Z,6.40
2023-01-09T01:29:41.943Z,5.30
2023-01-09T01:32:03.501Z,5.37
2023-01-09T01:34:25.037Z,5.33
2023-01-09T01:36:46.457Z,4.57
2023-01-09T01:39:07.893Z,4.77
2023-01-09T01:41:29.687Z,4.47
2023-01-09T01:43:57.678Z,3.93
2023-01-09T01:46:19.362Z,3.40
2023-01-09T01:48:40.834Z,3.73
2023-01-09T01:51:05.868Z,4.50
2023-01-09T01:53:43.067Z,3.10
2023-01-09T01:56:26.639Z,3.67
2023-01-09T01:58:57.763Z,3.10
2023-01-09T02:01:20.762Z,3.27
2023-01-09T02:03:43.293Z,3.93
2023-01-09T02:06:05.905Z,3.00
2023-01-09T02:08:27.351Z,2.80
2023-01-09T02:10:49.550Z,3.93
2023-01-09T02:13:12.068Z,4.67
2023-01-09T02:15:52.255Z,3.87
2023-01-09T02:18:34.920Z,4.60
2023-01-09T02:21:06.457Z,3.63
2023-01-09T02:23:59.803Z,3.53
2023-01-09T02:26:33.265Z,2.30
2023-01-09T02:29:31.433Z,2.33
2023-01-09T02:32:07.650Z,1.90
2023-01-09T02:34:52.936Z,2.37
2023-01-09T02:37:31.085Z,3.50
2023-01-09T02:39:59.931Z,2.23
2023-01-09T02:42:23.792Z,2.20
2023-01-09T02:44:45.242Z,2.40
2023-01-09T02:47:08.290Z,2.97
2023-01-09T02:49:30.402Z,2.60
2023-01-09T02:51:54.148Z,2.20
2023-01-09T02:54:24.259Z,2.20
2023-01-09T02:57:07.922Z,2.07
2023-01-09T03:00:07.551Z,2.00
2023-01-09T03:02:49.814Z,2.50
2023-01-09T03:05:41.783Z,3.73
2023-01-09T03:08:06.648Z,1.97
2023-01-09T03:10:36.036Z,1.97
2023-01-09T03:13:00.558Z,2.47
2023-01-09T03:15:26.214Z,1.67
2023-01-09T03:17:50.611Z,1.83
2023-01-09T03:20:16.295Z,1.70
2023-01-09T03:22:40.237Z,1.60
2023-01-09T03:25:02.011Z,1.43
2023-01-09T03:27:23.552Z,2.43
2023-01-09T03:29:44.964Z,1.53
2023-01-09T03:32:06.400Z,3.17
2023-01-09T03:34:27.823Z,2.70
2023-01-09T03:36:49.246Z,1.47
2023-01-09T03:39:10.699Z,1.60
2023-01-09T03:41:32.112Z,1.67
2023-01-09T03:43:53.514Z,3.20
2023-01-09T03:46:16.316Z,3.10
2023-01-09T03:48:37.716Z,2.93
2023-01-09T03:50:59.208Z,1.80
2023-01-09T03:53:22.509Z,2.03
2023-01-09T03:55:46.739Z,2.10
2023-01-09T03:58:08.156Z,2.67
2023-01-09T04:00:29.568Z,1.77
2023-01-09T04:02:51.003Z,1.83
2023-01-09T04:05:12.599Z,1.83
2023-01-09T04:07:34.002Z,1.63
2023-01-09T04:09:55.402Z,1.97
2023-01-09T04:12:16.873Z,2.50
2023-01-09T04:14:38.263Z,2.67
2023-01-09T04:16:59.696Z,2.37
2023-01-09T04:19:21.106Z,2.67
2023-01-09T04:21:42.527Z,1.27
2023-01-09T04:24:04.333Z,1.90
2023-01-09T04:26:26.074Z,1.63
2023-01-09T04:28:47.850Z,2.17
2023-01-09T04:31:09.551Z,1.70
2023-01-09T04:33:31.261Z,1.40
2023-01-09T04:35:52.717Z,1.10
2023-01-09T04:38:14.125Z,2.70
2023-01-09T04:40:35.555Z,1.37
2023-01-09T04:42:56.961Z,1.50
2023-01-09T04:45:18.521Z,1.07
2023-01-09T04:47:39.953Z,1.00
2023-01-09T04:50:01.678Z,1.30
2023-01-09T04:52:23.925Z,1.20
2023-01-09T04:54:45.356Z,1.20
2023-01-09T04:57:06.996Z,1.30
2023-01-09T04:59:28.458Z,1.10
2023-01-09T05:01:52.170Z,2.50
2023-01-09T05:04:14.278Z,1.17
2023-01-09T05:06:35.848Z,1.03
2023-01-09T05:08:57.713Z,0.97
2023-01-09T05:11:19.325Z,2.43
2023-01-09T05:13:40.814Z,1.07
2023-01-09T05:16:02.256Z,0.63
2023-01-09T05:18:23.959Z,1.00
2023-01-09T05:20:45.469Z,0.60
2023-01-09T05:23:06.881Z,1.10
2023-01-09T05:25:28.347Z,1.73
2023-01-09T05:27:49.777Z,1.83
2023-01-09T05:30:13.701Z,1.17
2023-01-09T05:32:35.721Z,1.93
2023-01-09T05:34:57.209Z,0.90
2023-01-09T05:37:18.645Z,0.80
2023-01-09T05:39:40.100Z,0.87
2023-01-09T05:42:01.541Z,0.73
2023-01-09T05:44:22.983Z,1.10
2023-01-09T05:46:44.593Z,1.03
2023-01-09T05:49:06.028Z,1.07
2023-01-09T05:51:27.543Z,1.10
2023-01-09T05:53:49.012Z,0.60
2023-01-09T05:56:11.788Z,0.70
2023-01-09T05:58:33.507Z,0.67
2023-01-09T06:00:55.061Z,0.50
2023-01-09T06:03:16.552Z,0.80
2023-01-09T06:05:38.053Z,0.50
2023-01-09T06:07:59.523Z,1.27
2023-01-09T06:10:20.967Z,0.53
2023-01-09T06:12:46.411Z,1.70
2023-01-09T06:15:09.111Z,0.77
2023-01-09T06:17:30.601Z,2.53
2023-01-09T06:19:52.192Z,0.90
2023-01-09T06:22:13.614Z,1.87
2023-01-09T06:24:35.071Z,0.67
2023-01-09T06:26:56.459Z,0.83
2023-01-09T06:29:17.936Z,2.53
2023-01-09T06:31:39.374Z,3.23
2023-01-09T06:34:00.808Z,3.10
2023-01-09T06:36:22.800Z,1.67
2023-01-09T06:38:44.453Z,0.50
2023-01-09T06:41:06.208Z,0.97
2023-01-09T06:43:27.961Z,1.43
2023-01-09T06:45:49.652Z,1.70
2023-01-09T06:48:11.935Z,0.70
2023-01-09T06:50:34.037Z,3.77
2023-01-09T06:52:55.516Z,2.03
2023-01-09T06:55:17.803Z,2.13
2023-01-09T06:57:39.254Z,2.43
2023-01-09T07:00:00.765Z,1.27
2023-01-09T07:04:52.079Z,1.10
2023-01-09T07:07:16.024Z,2.57
2023-01-09T07:09:37.521Z,1.73
2023-01-09T07:11:58.914Z,1.33
2023-01-09T07:14:20.356Z,2.13
2023-01-09T07:16:41.793Z,2.50
2023-01-09T07:19:03.276Z,0.97
2023-01-09T07:21:24.765Z,0.47
2023-01-09T07:23:46.216Z,0.93
2023-01-09T07:26:07.698Z,0.50
2023-01-09T07:28:29.212Z,1.70
2023-01-09T07:30:50.655Z,1.50
2023-01-09T07:33:12.076Z,2.20
2023-01-09T07:35:33.928Z,1.03
2023-01-09T07:37:55.365Z,1.23
2023-01-09T07:40:17.009Z,2.17
2023-01-09T07:42:38.500Z,1.93
2023-01-09T07:44:59.957Z,2.17
2023-01-09T07:47:21.608Z,2.13
2023-01-09T07:49:43.142Z,0.93
2023-01-09T07:52:05.064Z,1.43
2023-01-09T07:54:26.505Z,1.73
2023-01-09T07:56:48.123Z,0.97
2023-01-09T07:59:09.628Z,2.03
2023-01-09T08:01:31.182Z,1.10
2023-01-09T08:03:52.659Z,0.90
2023-01-09T08:06:14.081Z,2.73
2023-01-09T08:08:35.658Z,2.90
2023-01-09T08:10:57.174Z,2.20
2023-01-09T08:13:18.639Z,3.13
2023-01-09T08:15:40.149Z,2.40
2023-01-09T08:18:01.581Z,1.30
2023-01-09T08:20:23.058Z,1.23
2023-01-09T08:22:50.461Z,2.57
2023-01-09T08:25:12.562Z,1.53
2023-01-09T08:27:34.249Z,2.23
2023-01-09T08:29:55.680Z,3.30
2023-01-09T08:32:17.094Z,1.20
2023-01-09T08:34:38.568Z,3.10
2023-01-09T08:37:00.032Z,1.83
2023-01-09T08:39:21.488Z,3.20
2023-01-09T08:42:01.536Z,1.93
2023-01-09T08:44:41.823Z,2.33
2023-01-09T08:47:05.909Z,2.10
2023-01-09T08:49:27.364Z,3.80
2023-01-09T08:51:48.799Z,4.43
2023-01-09T08:54:10.238Z,3.37
2023-01-09T08:56:31.655Z,2.43
2023-01-09T08:58:53.133Z,2.60
2023-01-09T09:01:14.559Z,4.33
2023-01-09T09:03:36.045Z,3.00
2023-01-09T09:05:57.445Z,3.93
2023-01-09T09:08:20.255Z,3.67
2023-01-09T09:10:42.061Z,5.13
2023-01-09T09:13:03.777Z,2.50
2023-01-09T09:15:27.188Z,3.97
2023-01-09T09:17:54.488Z,5.23
2023-01-09T09:20:16.063Z,1.63
2023-01-09T09:22:37.671Z,1.53
2023-01-09T09:24:59.075Z,2.10
2023-01-09T09:27:20.686Z,1.27
2023-01-09T09:29:42.125Z,1.10
2023-01-09T09:32:03.673Z,3.27
2023-01-09T09:34:25.120Z,2.43
2023-01-09T09:36:46.585Z,2.30
2023-01-09T09:39:08.662Z,1.37
2023-01-09T09:42:18.235Z,1.27
2023-01-09T09:44:58.759Z,1.93
2023-01-09T09:47:43.295Z,1.10
2023-01-09T09:50:55.931Z,0.40
2023-01-09T09:53:24.866Z,2.13
2023-01-09T09:55:49.565Z,1.17
2023-01-09T09:58:36.631Z,1.47
2023-01-09T10:01:01.021Z,1.03
2023-01-09T10:03:33.882Z,0.97
2023-01-09T10:05:58.750Z,2.43
2023-01-09T10:08:38.603Z,1.20
2023-01-09T10:11:00.598Z,1.53
2023-01-09T10:13:43.339Z,1.10
2023-01-09T10:16:25.467Z,1.40
2023-01-09T10:19:16.209Z,1.40
2023-01-09T10:21:58.662Z,1.20
2023-01-09T10:24:45.886Z,1.30
2023-01-09T10:27:30.077Z,1.00
2023-01-09T10:30:37.688Z,1.27
2023-01-09T10:33:18.025Z,1.77
2023-01-09T10:35:47.322Z,1.47
2023-01-09T10:38:12.750Z,2.47
2023-01-09T10:40:44.055Z,1.47
2023-01-09T10:43:35.538Z,2.33
2023-01-09T10:46:03.263Z,0.87
2023-01-09T10:48:31.986Z,0.90
2023-01-09T10:50:55.684Z,1.00
2023-01-09T10:53:23.026Z,0.87
2023-01-09T10:55:45.402Z,1.40
2023-01-09T10:58:18.896Z,2.40
2023-01-09T11:00:41.345Z,1.43
2023-01-09T11:03:02.874Z,1.90
2023-01-09T11:05:28.587Z,1.03
2023-01-09T11:07:55.987Z,1.57
2023-01-09T11:10:18.539Z,3.40
2023-01-09T11:12:40.349Z,1.13
2023-01-09T11:15:29.142Z,3.53
2023-01-09T11:17:51.839Z,0.97
2023-01-09T11:20:20.459Z,2.27
2023-01-09T11:22:44.605Z,1.30
2023-01-09T11:25:12.706Z,2.60
2023-01-09T11:27:34.169Z,2.83
2023-01-09T11:30:17.333Z,2.60
2023-01-09T11:32:38.813Z,2.67
2023-01-09T11:35:00.353Z,1.47
2023-01-09T11:37:26.658Z,1.30
2023-01-09T11:39:48.196Z,1.80
2023-01-09T11:42:40.586Z,5.07
2023-01-09T11:45:02.054Z,1.37
2023-01-09T11:47:37.058Z,3.50
2023-01-09T11:50:19.068Z,3.03
2023-01-09T11:52:40.508Z,2.67
2023-01-09T11:55:11.947Z,1.83
2023-01-09T11:57:34.629Z,3.13
2023-01-09T12:00:01.705Z,2.83
2023-01-09T12:03:04.246Z,1.97
2023-01-09T12:05:44.893Z,3.20
2023-01-09T12:08:50.666Z,1.47
2023-01-09T12:11:40.320Z,1.87
2023-01-09T12:14:22.966Z,2.57
2023-01-09T12:17:00.159Z,4.00
2023-01-09T12:19:43.082Z,2.50
2023-01-09T12:22:31.706Z,2.50
2023-01-09T12:25:21.840Z,3.13
2023-01-09T12:28:05.313Z,2.07
2023-01-09T12:30:48.395Z,2.60
2023-01-09T12:33:28.724Z,1.20
2023-01-09T12:36:17.224Z,2.17
2023-01-09T12:38:56.253Z,2.17
2023-01-09T12:41:33.133Z,2.60
2023-01-09T12:44:27.392Z,3.57
2023-01-09T12:47:34.827Z,1.80
2023-01-09T12:50:14.576Z,1.27
2023-01-09T12:52:42.396Z,2.40
2023-01-09T12:55:14.358Z,4.80
2023-01-09T12:57:40.803Z,2.20
2023-01-09T13:00:23.563Z,2.57
2023-01-09T13:05:26.748Z,2.80
2023-01-09T13:07:54.284Z,2.93
2023-01-09T13:10:35.652Z,4.50
2023-01-09T13:12:59.993Z,1.53
2023-01-09T13:15:40.719Z,2.27
2023-01-09T13:18:11.215Z,1.60
2023-01-09T13:20:46.513Z,2.17
2023-01-09T13:23:16.988Z,1.83
2023-01-09T13:25:44.616Z,2.53
2023-01-09T13:28:14.098Z,2.70
2023-01-09T13:31:04.613Z,2.00
2023-01-09T13:33:38.998Z,2.33
2023-01-09T13:36:03.424Z,1.10
2023-01-09T13:38:27.586Z,2.53
2023-01-09T13:41:21.864Z,2.53
2023-01-09T13:43:55.403Z,3.43
2023-01-09T13:46:17.036Z,1.80
2023-01-09T13:48:41.283Z,2.83
2023-01-09T13:51:55.665Z,3.17
2023-01-09T13:55:01.625Z,2.20
2023-01-09T13:57:38.518Z,1.33
2023-01-09T14:00:20.177Z,4.53
2023-01-09T14:02:42.273Z,1.93
2023-01-09T14:05:08.814Z,5.33
2023-01-09T14:07:37.430Z,2.33
2023-01-09T14:10:20.749Z,2.43
2023-01-09T14:12:43.633Z,5.13
2023-01-09T14:15:05.596Z,3.63
2023-01-09T14:17:33.281Z,1.40
2023-01-09T14:19:58.161Z,3.47
2023-01-09T14:22:56.098Z,1.37
2023-01-09T14:25:24.540Z,1.50
2023-01-09T14:27:54.775Z,1.20
2023-01-09T14:30:37.672Z,1.20
2023-01-09T14:33:25.849Z,3.50
2023-01-09T14:36:24.076Z,2.87
2023-01-09T14:38:54.014Z,1.67
2023-01-09T14:41:15.381Z,2.80
2023-01-09T14:43:44.157Z,2.57
2023-01-09T14:46:12.809Z,1.53
2023-01-09T14:48:35.938Z,1.23
2023-01-09T14:50:59.931Z,4.30
2023-01-09T14:53:27.037Z,2.87
2023-01-09T14:55:55.557Z,1.77
2023-01-09T14:58:29.377Z,0.83
2023-01-09T15:01:07.742Z,2.40
2023-01-09T15:03:38.702Z,1.70
2023-01-09T15:06:01.245Z,1.13
2023-01-09T15:08:26.059Z,2.37
2023-01-09T15:10:49.382Z,1.60
2023-01-09T15:13:17.951Z,2.53
2023-01-09T15:15:45.066Z,1.30
2023-01-09T15:18:10.562Z,2.13
2023-01-09T15:20:33.542Z,4.27
2023-01-09T15:22:55.247Z,2.27
2023-01-09T15:25:38.773Z,1.20
2023-01-09T15:28:20.136Z,2.33
2023-01-09T15:30:43.386Z,3.23
2023-01-09T15:33:17.951Z,4.00
2023-01-09T15:35:44.987Z,2.40
2023-01-09T15:38:06.418Z,2.27
2023-01-09T15:40:33.627Z,1.97
2023-01-09T15:42:57.565Z,2.37
2023-01-09T15:45:22.123Z,4.50
2023-01-09T15:47:43.605Z,2.07
2023-01-09T15:50:05.877Z,3.20
2023-01-09T15:52:27.568Z,2.00
2023-01-09T15:54:49.279Z,2.40
2023-01-09T15:57:25.962Z,1.47
2023-01-09T15:59:47.439Z,2.07
2023-01-09T16:02:33.321Z,2.73
2023-01-09T16:04:55.600Z,2.03
2023-01-09T16:07:20.247Z,2.13
2023-01-09T16:09:45.496Z,4.50
2023-01-09T16:12:07.125Z,5.20
2023-01-09T16:14:35.252Z,2.07
2023-01-09T16:17:03.172Z,2.00
2023-01-09T16:19:46.355Z,1.70
2023-01-09T16:22:31.166Z,1.53
2023-01-09T16:24:54.420Z,2.23
2023-01-09T16:27:35.147Z,2.30
2023-01-09T16:29:59.491Z,4.60
2023-01-09T16:32:23.842Z,3.77
2023-01-09T16:34:48.357Z,3.33
2023-01-09T16:37:12.951Z,3.13
2023-01-09T16:39:34.389Z,2.77
2023-01-09T16:42:16.089Z,2.97
2023-01-09T16:44:37.515Z,1.60
2023-01-09T16:46:58.946Z,4.80
2023-01-09T16:49:27.161Z,1.70
2023-01-09T16:51:49.806Z,4.90
2023-01-09T16:54:11.497Z,2.47
2023-01-09T16:56:35.407Z,3.07
2023-01-09T16:58:57.003Z,1.30
2023-01-09T17:01:18.527Z,2.37
2023-01-09T17:03:43.613Z,2.17
2023-01-09T17:06:06.497Z,3.43
2023-01-09T17:08:34.872Z,1.37
2023-01-09T17:10:57.156Z,1.20
2023-01-09T17:13:18.669Z,2.10
2023-01-09T17:15:40.231Z,2.13
2023-01-09T17:18:02.432Z,2.40
2023-01-09T17:20:25.389Z,2.27
2023-01-09T17:22:46.879Z,2.33
2023-01-09T17:25:31.995Z,1.90
2023-01-09T17:28:11.955Z,4.47
2023-01-09T17:30:33.388Z,5.10
2023-01-09T17:32:55.001Z,2.43
2023-01-09T17:35:16.871Z,4.53
2023-01-09T17:37:38.539Z,8.57
2023-01-09T17:40:03.578Z,2.33
2023-01-09T17:42:25.013Z,1.80
2023-01-09T17:44:46.459Z,2.13
2023-01-09T17:47:14.825Z,2.40
2023-01-09T17:49:36.246Z,5.20
2023-01-09T17:51:57.702Z,3.83
2023-01-09T17:54:21.108Z,1.60
2023-01-09T17:56:46.621Z,1.33
2023-01-09T17:59:10.403Z,1.63
2023-01-09T18:01:31.872Z,3.03
2023-01-09T18:03:53.286Z,1.83
2023-01-09T18:06:17.057Z,1.47
2023-01-09T18:08:39.256Z,1.93
2023-01-09T18:11:09.197Z,1.90
2023-01-09T18:13:30.883Z,1.67
2023-01-09T18:15:52.326Z,1.13
2023-01-09T18:18:16.052Z,2.00
2023-01-09T18:20:41.576Z,2.27
2023-01-09T18:23:03.001Z,1.00
2023-01-09T18:25:24.392Z,3.20
2023-01-09T18:27:46.545Z,1.07
2023-01-09T18:30:08.756Z,3.00
2023-01-09T18:32:30.190Z,4.10
2023-01-09T18:34:51.655Z,7.73
2023-01-09T18:37:13.114Z,4.67
2023-01-09T18:39:34.629Z,6.93
2023-01-09T18:41:56.043Z,3.00
2023-01-09T18:44:20.067Z,3.90
2023-01-09T18:46:42.142Z,7.97
2023-01-09T18:49:05.071Z,2.53
2023-01-09T18:51:28.247Z,5.70
2023-01-09T18:53:50.270Z,2.93
2023-01-09T18:56:11.685Z,7.37
2023-01-09T18:58:34.187Z,3.93
2023-01-09T19:00:56.147Z,7.03
2023-01-09T19:03:17.592Z,8.97
2023-01-09T19:05:39.025Z,14.50
2023-01-09T19:08:00.442Z,4.57
2023-01-09T19:10:21.918Z,7.87
2023-01-09T19:12:43.347Z,3.37
2023-01-09T19:15:10.915Z,4.60
2023-01-09T19:17:33.291Z,4.70
2023-01-09T19:19:54.769Z,3.60
2023-01-09T19:22:16.195Z,4.80
2023-01-09T19:24:37.777Z,3.90
2023-01-09T19:27:00.122Z,5.43
2023-01-09T19:29:21.516Z,3.00
2023-01-09T19:31:44.995Z,2.43
2023-01-09T19:34:06.477Z,4.47
2023-01-09T19:36:28.301Z,3.43
2023-01-09T19:38:54.987Z,7.00
2023-01-09T19:41:19.466Z,5.10
2023-01-09T19:43:41.718Z,6.23
2023-01-09T19:46:07.448Z,2.83
2023-01-09T19:48:30.552Z,3.97
2023-01-09T19:51:00.403Z,3.60
2023-01-09T19:53:21.792Z,4.73
2023-01-09T19:55:43.250Z,4.63
2023-01-09T19:58:05.318Z,5.07
2023-01-09T20:00:26.748Z,2.87
2023-01-09T20:02:49.562Z,5.63
2023-01-09T20:05:11.017Z,5.60
2023-01-09T20:07:32.571Z,6.20
2023-01-09T20:09:54.018Z,5.17
2023-01-09T20:12:15.578Z,8.30
2023-01-09T20:14:37.777Z,3.17
2023-01-09T20:17:01.020Z,4.43
2023-01-09T20:19:22.702Z,5.27
2023-01-09T20:21:44.286Z,6.47
2023-01-09T20:24:07.139Z,5.47
2023-01-09T20:26:29.356Z,4.10
2023-01-09T20:28:50.767Z,4.70
2023-01-09T20:31:16.177Z,4.57
2023-01-09T20:33:37.835Z,5.27
2023-01-09T20:36:02.774Z,6.07
2023-01-09T20:38:25.426Z,3.17
2023-01-09T20:40:46.971Z,3.00
2023-01-09T20:43:09.927Z,4.63
2023-01-09T20:45:33.596Z,3.57
2023-01-09T20:47:55.088Z,4.27
2023-01-09T20:50:17.218Z,5.47
2023-01-09T20:52:38.953Z,5.67
2023-01-09T20:55:00.385Z,5.20
2023-01-09T20:57:21.810Z,5.50
2023-01-09T20:59:43.199Z,3.60
2023-01-09T21:02:04.662Z,2.93
2023-01-09T21:04:26.112Z,3.90
2023-01-09T21:06:49.702Z,6.27
2023-01-09T21:09:11.530Z,6.70
2023-01-09T21:11:33.584Z,3.57
2023-01-09T21:13:55.037Z,3.07
2023-01-09T21:16:21.280Z,4.77
2023-01-09T21:18:43.848Z,4.30
2023-01-09T21:21:10.923Z,3.83
2023-01-09T21:23:32.904Z,4.03
2023-01-09T21:25:54.324Z,2.80
2023-01-09T21:28:20.004Z,3.00
2023-01-09T21:30:41.881Z,4.23
2023-01-09T21:33:03.342Z,4.33
2023-01-09T21:35:25.159Z,4.83
2023-01-09T21:37:46.671Z,3.90
2023-01-09T21:40:13.763Z,10.07
2023-01-09T21:42:53.710Z,2.60
2023-01-09T21:45:34.785Z,4.50
2023-01-09T21:47:56.215Z,4.60
2023-01-09T21:50:17.665Z,6.13
2023-01-09T21:52:39.082Z,4.57
2023-01-09T21:55:00.537Z,5.27
2023-01-09T21:57:22.037Z,3.10
2023-01-09T21:59:43.570Z,4.13
2023-01-09T22:02:05.052Z,5.83
2023-01-09T22:04:28.625Z,3.43
2023-01-09T22:06:50.193Z,6.97
2023-01-09T22:09:12.158Z,3.13
2023-01-09T22:11:33.612Z,6.03
2023-01-09T22:13:55.140Z,6.07
2023-01-09T22:16:17.354Z,5.27
2023-01-09T22:18:38.861Z,7.93
2023-01-09T22:21:00.446Z,6.53
2023-01-09T22:23:21.871Z,7.93
2023-01-09T22:25:43.336Z,6.00
2023-01-09T22:28:05.608Z,8.50
2023-01-09T22:30:27.010Z,6.33
2023-01-09T22:32:48.438Z,6.87
2023-01-09T22:35:10.065Z,7.30
2023-01-09T22:37:31.530Z,6.03
2023-01-09T22:39:52.973Z,7.80
2023-01-09T22:42:16.643Z,5.73
2023-01-09T22:44:38.059Z,10.47
2023-01-09T22:47:00.445Z,7.60
2023-01-09T22:49:21.853Z,6.83
2023-01-09T22:51:43.768Z,8.80
2023-01-09T22:54:05.216Z,8.17
2023-01-09T22:56:26.665Z,5.33
2023-01-09T22:58:53.267Z,7.10
2023-01-09T23:01:14.688Z,10.60
2023-01-09T23:03:36.091Z,12.63
2023-01-09T23:06:05.702Z,6.93
2023-01-09T23:08:27.404Z,8.27
2023-01-09T23:10:48.841Z,7.03
2023-01-09T23:13:10.387Z,6.37
2023-01-09T23:15:31.940Z,5.87
2023-01-09T23:17:53.360Z,8.53
2023-01-09T23:20:14.844Z,5.87
2023-01-09T23:22:36.277Z,7.83
2023-01-09T23:24:57.689Z,8.17
2023-01-09T23:27:19.131Z,6.60
2023-01-09T23:29:40.594Z,9.07
2023-01-09T23:32:02.087Z,5.80
2023-01-09T23:34:25.610Z,4.73
2023-01-09T23:36:49.735Z,7.07
2023-01-09T23:39:11.240Z,5.03
2023-01-09T23:41:51.462Z,5.33
2023-01-09T23:44:12.865Z,4.07
2023-01-09T23:46:34.300Z,4.27
2023-01-09T23:48:55.702Z,3.93
2023-01-09T23:51:17.186Z,5.40
2023-01-09T23:53:38.911Z,3.03
2023-01-09T23:56:01.198Z,3.77
2023-01-09T23:58:22.844Z,4.80
